Time;durP1;ratioP1;P1;durP2;ratioP2;P2;SDS_P1;SDS_P2;PMS_P1;PMS_P2;Temp;Humidity;BMP_temperature;BMP_pressure;BME280_temperature;BME280_humidity;BME280_pressure;Samples;Min_cycle;Max_cycle;Signal;HPM_P1;HPM_P2
2022/01/31 00:02:20;;;;;;;9.45;3.83;;;7.20;53.60;;;;;;5009136;28;20068;-75
2022/01/31 00:04:46;;;;;;;6.50;2.67;;;6.90;54.20;;;;;;5009307;28;20511;-76
2022/01/31 00:07:12;;;;;;;5.95;2.88;;;6.60;55.80;;;;;;5011981;28;20389;-75
2022/01/31 00:09:40;;;;;;;6.28;1.05;;;6.50;56.00;;;;;;5014018;28;20488;-75
2022/01/31 00:12:10;;;;;;;1.58;0.65;;;6.50;53.90;;;;;;5013761;28;20121;-75
2022/01/31 00:17:02;;;;;;;1.38;0.70;;;7.60;50.90;;;;;;5014258;28;20083;-75
2022/01/31 00:19:28;;;;;;;2.97;0.90;;;7.80;50.30;;;;;;5014035;28;20038;-75
2022/01/31 00:21:54;;;;;;;4.75;1.60;;;7.70;51.40;;;;;;5014374;28;20040;-75
2022/01/31 00:24:20;;;;;;;4.47;1.83;;;7.10;53.10;;;;;;5013430;28;20412;-76
2022/01/31 00:26:46;;;;;;;9.00;3.42;;;6.90;53.90;;;;;;5013579;28;20069;-75
2022/01/31 00:29:11;;;;;;;5.50;3.05;;;6.30;57.00;;;;;;5014057;28;20057;-75
2022/01/31 00:31:37;;;;;;;1.48;0.70;;;6.00;57.60;;;;;;5013568;28;20022;-75
2022/01/31 00:34:03;;;;;;;1.70;0.70;;;6.30;53.60;;;;;;5014323;28;20026;-75
2022/01/31 00:36:28;;;;;;;5.20;2.10;;;6.80;52.20;;;;;;5012874;28;20022;-76
2022/01/31 00:38:54;;;;;;;6.47;3.40;;;6.40;56.50;;;;;;5014810;28;20062;-75
2022/01/31 00:41:20;;;;;;;5.43;2.58;;;5.80;58.40;;;;;;5013778;28;20488;-75
2022/01/31 00:43:56;;;;;;;4.72;2.33;;;5.70;58.70;;;;;;5014541;28;20112;-75
2022/01/31 00:46:27;;;;;;;7.20;3.40;;;5.70;58.00;;;;;;5013855;28;20484;-75
2022/01/31 00:48:53;;;;;;;11.25;3.85;;;5.30;60.00;;;;;;5013654;28;20042;-75
2022/01/31 00:51:19;;;;;;;8.75;3.83;;;5.30;60.00;;;;;;5013782;28;20132;-75
2022/01/31 00:53:45;;;;;;;7.63;3.50;;;5.20;60.50;;;;;;5013492;28;20044;-75
2022/01/31 00:56:10;;;;;;;6.60;2.80;;;5.30;60.30;;;;;;5012579;28;20038;-75
2022/01/31 00:58:36;;;;;;;6.68;3.20;;;5.10;60.20;;;;;;5013819;28;20037;-75
2022/01/31 01:01:02;;;;;;;6.75;3.30;;;5.40;59.50;;;;;;5012868;28;20121;-75
2022/01/31 01:03:28;;;;;;;6.05;2.88;;;5.40;59.90;;;;;;5013496;28;20026;-75
2022/01/31 01:05:53;;;;;;;4.82;2.28;;;5.20;59.40;;;;;;5012025;28;20032;-75
2022/01/31 01:08:20;;;;;;;3.08;1.38;;;5.40;58.50;;;;;;5011870;28;20038;-75
2022/01/31 01:10:45;;;;;;;3.13;1.25;;;5.90;54.70;;;;;;5013985;28;20034;-75
2022/01/31 01:13:12;;;;;;;2.25;1.02;;;6.30;53.40;;;;;;5012027;28;20030;-75
2022/01/31 01:15:38;;;;;;;1.83;0.65;;;6.40;52.90;;;;;;5013320;28;20026;-75
2022/01/31 01:18:04;;;;;;;2.17;0.90;;;6.50;52.20;;;;;;5013474;28;20030;-75
2022/01/31 01:20:30;;;;;;;3.90;1.38;;;6.40;52.60;;;;;;5012985;28;20475;-75
2022/01/31 01:22:56;;;;;;;5.30;2.28;;;6.00;55.50;;;;;;5013514;28;20069;-75
2022/01/31 01:25:22;;;;;;;4.57;2.00;;;5.60;56.50;;;;;;5012409;28;20108;-75
2022/01/31 01:27:51;;;;;;;3.42;1.38;;;5.40;57.20;;;;;;5012485;28;20495;-75
2022/01/31 01:30:17;;;;;;;2.35;1.05;;;5.30;57.70;;;;;;5013399;28;20128;-75
2022/01/31 01:33:01;;;;;;;2.85;0.90;;;5.10;57.70;;;;;;5012691;28;20026;-75
2022/01/31 01:35:32;;;;;;;2.03;0.90;;;5.30;56.20;;;;;;5011383;28;20038;-74
2022/01/31 01:38:04;;;;;;;2.00;0.85;;;5.40;55.80;;;;;;5012229;28;20080;-74
2022/01/31 01:40:30;;;;;;;6.25;2.70;;;5.30;56.50;;;;;;5012763;28;20021;-74
2022/01/31 01:42:55;;;;;;;3.65;1.70;;;5.10;58.20;;;;;;5012891;28;20387;-74
2022/01/31 01:45:21;;;;;;;8.38;3.15;;;5.00;58.10;;;;;;5011412;28;20030;-74
2022/01/31 01:47:47;;;;;;;6.95;3.53;;;4.90;60.20;;;;;;5010897;28;20049;-74
2022/01/31 01:50:13;;;;;;;5.25;2.40;;;4.70;60.90;;;;;;5012710;28;20439;-74
2022/01/31 01:52:39;;;;;;;5.70;3.00;;;4.90;59.50;;;;;;5011533;28;20140;-74
2022/01/31 01:55:07;;;;;;;6.05;2.40;;;5.00;60.00;;;;;;5012514;28;20026;-75
2022/01/31 01:57:32;;;;;;;5.05;1.98;;;5.00;58.30;;;;;;5012631;28;20061;-75
2022/01/31 01:59:58;;;;;;;4.05;1.58;;;5.10;58.20;;;;;;5011889;28;20112;-75
2022/01/31 02:02:24;;;;;;;4.63;2.20;;;5.20;56.90;;;;;;5012125;28;20041;-75
2022/01/31 02:04:50;;;;;;;3.55;1.40;;;5.20;57.70;;;;;;5012001;28;20041;-75
2022/01/31 02:07:16;;;;;;;3.65;1.40;;;5.00;57.60;;;;;;5012723;28;20259;-74
2022/01/31 02:09:45;;;;;;;2.53;1.10;;;5.20;56.80;;;;;;5012161;28;20405;-74
2022/01/31 02:12:11;;;;;;;2.47;1.05;;;5.20;55.60;;;;;;5012298;28;20048;-74
2022/01/31 02:14:36;;;;;;;2.25;0.90;;;5.20;56.10;;;;;;5011826;28;20045;-74
2022/01/31 02:17:03;;;;;;;2.20;1.27;;;5.20;55.30;;;;;;5012617;28;20038;-75
2022/01/31 02:19:29;;;;;;;2.55;0.98;;;5.40;55.90;;;;;;5011025;28;20034;-74
2022/01/31 02:21:56;;;;;;;2.15;1.00;;;5.40;54.60;;;;;;5012441;28;20022;-74
2022/01/31 02:24:21;;;;;;;7.15;2.00;;;5.40;55.70;;;;;;5011090;28;20381;-75
2022/01/31 02:26:48;;;;;;;4.63;1.75;;;5.20;57.80;;;;;;5012356;28;20045;-75
2022/01/31 02:29:15;;;;;;;2.40;0.93;;;5.10;57.00;;;;;;5010867;28;20100;-75
2022/01/31 02:31:45;;;;;;;3.42;1.13;;;4.90;57.60;;;;;;5010796;28;20033;-75
2022/01/31 02:34:11;;;;;;;1.60;0.68;;;4.90;57.10;;;;;;5011696;28;20030;-75
2022/01/31 02:36:38;;;;;;;1.45;0.40;;;5.10;55.50;;;;;;5011111;28;20033;-75
2022/01/31 02:39:05;;;;;;;0.50;0.30;;;5.70;53.40;;;;;;5012337;28;20060;-75
2022/01/31 02:41:31;;;;;;;1.73;0.50;;;6.30;51.80;;;;;;5011793;28;20041;-75
2022/01/31 02:43:57;;;;;;;4.07;1.42;;;6.20;52.80;;;;;;5011491;28;20034;-75
2022/01/31 02:46:26;;;;;;;4.28;1.80;;;5.60;56.70;;;;;;5011137;28;20419;-74
2022/01/31 02:48:53;;;;;;;2.10;0.77;;;5.30;57.40;;;;;;5009784;28;20038;-75
2022/01/31 02:51:22;;;;;;;3.65;1.58;;;5.10;58.20;;;;;;5011569;28;20034;-75
2022/01/31 02:53:48;;;;;;;3.38;1.10;;;4.90;59.70;;;;;;5010717;28;20044;-75
2022/01/31 02:56:14;;;;;;;2.03;0.77;;;4.80;59.50;;;;;;5010481;28;20029;-75
2022/01/31 02:58:40;;;;;;;1.17;0.70;;;4.90;57.80;;;;;;5010337;28;20087;-75
2022/01/31 03:01:06;;;;;;;2.58;0.80;;;4.90;57.40;;;;;;5011852;28;20135;-75
2022/01/31 03:03:32;;;;;;;3.50;1.55;;;5.00;56.30;;;;;;5011421;28;20036;-75
2022/01/31 03:05:57;;;;;;;4.45;1.25;;;5.10;56.90;;;;;;5011371;28;20026;-75
2022/01/31 03:08:24;;;;;;;2.95;0.63;;;5.00;58.00;;;;;;5011178;28;20050;-75
2022/01/31 03:10:50;;;;;;;1.10;0.20;;;4.90;55.70;;;;;;5011773;28;20029;-75
2022/01/31 03:13:16;;;;;;;1.60;0.52;;;5.20;55.50;;;;;;5012034;28;20041;-75
2022/01/31 03:15:42;;;;;;;1.40;0.65;;;5.10;56.80;;;;;;5011396;28;20033;-74
2022/01/31 03:18:08;;;;;;;0.68;0.25;;;4.90;56.10;;;;;;5011088;28;20029;-75
2022/01/31 03:20:34;;;;;;;0.85;0.40;;;4.90;56.10;;;;;;5011163;28;20069;-74
2022/01/31 03:23:00;;;;;;;3.28;1.50;;;4.80;57.70;;;;;;5011713;28;20034;-74
2022/01/31 03:25:26;;;;;;;2.45;1.08;;;4.80;56.40;;;;;;5010313;28;20045;-75
2022/01/31 03:27:52;;;;;;;1.77;0.55;;;4.70;56.80;;;;;;5010572;28;20180;-75
2022/01/31 03:30:20;;;;;;;1.45;0.40;;;4.60;56.60;;;;;;5010592;28;20112;-75
2022/01/31 03:32:47;;;;;;;1.73;0.68;;;4.60;56.70;;;;;;5010237;28;20041;-75
2022/01/31 03:35:17;;;;;;;2.45;0.82;;;4.60;56.40;;;;;;5010792;28;20038;-75
2022/01/31 03:37:43;;;;;;;1.58;0.70;;;4.60;56.90;;;;;;5011684;28;20112;-75
2022/01/31 03:40:10;;;;;;;1.73;0.43;;;4.40;57.70;;;;;;5011317;28;20034;-75
2022/01/31 03:42:37;;;;;;;1.38;0.40;;;4.40;56.80;;;;;;5011229;28;20045;-75
2022/01/31 03:45:06;;;;;;;2.15;0.30;;;4.50;56.50;;;;;;5010432;28;20041;-75
2022/01/31 03:47:31;;;;;;;1.20;0.55;;;4.50;56.20;;;;;;5010450;28;20038;-74
2022/01/31 03:49:57;;;;;;;1.00;0.40;;;4.70;55.60;;;;;;5010879;28;20034;-75
2022/01/31 03:52:23;;;;;;;1.08;0.38;;;5.10;54.50;;;;;;5011906;28;20375;-75
2022/01/31 03:54:48;;;;;;;0.88;0.32;;;5.20;55.10;;;;;;5010061;28;20059;-75
2022/01/31 03:57:14;;;;;;;0.70;0.40;;;4.80;55.90;;;;;;5009378;28;20025;-75
2022/01/31 03:59:40;;;;;;;0.85;0.30;;;4.70;57.80;;;;;;5009978;28;20073;-75
2022/01/31 04:02:07;;;;;;;1.00;0.45;;;4.60;58.30;;;;;;5009329;28;20049;-73
2022/01/31 04:04:33;;;;;;;0.85;0.50;;;4.50;57.30;;;;;;5001749;28;20030;-73
2022/01/31 04:06:59;;;;;;;1.85;0.50;;;4.40;56.60;;;;;;5004017;28;20172;-74
2022/01/31 04:09:26;;;;;;;0.52;0.30;;;4.50;56.20;;;;;;5004848;28;20124;-73
2022/01/31 04:11:52;;;;;;;2.20;0.60;;;4.70;55.60;;;;;;5007576;28;20041;-74
2022/01/31 04:14:17;;;;;;;0.55;0.30;;;4.80;55.90;;;;;;5006080;28;20030;-74
2022/01/31 04:16:43;;;;;;;1.88;0.28;;;5.00;55.00;;;;;;5005581;28;20030;-73
2022/01/31 04:19:08;;;;;;;0.93;0.40;;;5.20;54.60;;;;;;5006879;28;20026;-74
2022/01/31 04:21:34;;;;;;;1.92;0.70;;;5.00;55.40;;;;;;5007554;28;20030;-73
2022/01/31 04:24:00;;;;;;;1.23;0.57;;;4.50;58.70;;;;;;5009731;28;20030;-74
2022/01/31 04:26:32;;;;;;;0.40;0.30;;;4.80;55.50;;;;;;5008878;28;20045;-73
2022/01/31 04:29:06;;;;;;;0.95;0.35;;;4.90;55.60;;;;;;5009507;28;20041;-74
2022/01/31 04:31:39;;;;;;;1.63;0.50;;;4.70;56.70;;;;;;5009293;28;20094;-74
2022/01/31 04:34:05;;;;;;;1.63;0.47;;;4.80;55.70;;;;;;5009133;28;20029;-73
2022/01/31 04:36:31;;;;;;;3.60;1.08;;;4.70;56.80;;;;;;5009236;28;20177;-73
2022/01/31 04:38:57;;;;;;;2.08;0.80;;;4.60;57.70;;;;;;5010155;28;20034;-74
2022/01/31 04:41:22;;;;;;;0.73;0.30;;;4.50;57.60;;;;;;5010168;28;20030;-74
2022/01/31 04:43:50;;;;;;;1.10;0.40;;;4.50;56.90;;;;;;5009948;28;20038;-73
2022/01/31 04:46:16;;;;;;;0.70;0.40;;;4.70;56.70;;;;;;5004820;28;20543;-73
2022/01/31 04:48:44;;;;;;;0.65;0.20;;;4.70;56.70;;;;;;5007327;28;20197;-73
2022/01/31 04:51:12;;;;;;;0.50;0.22;;;4.60;56.90;;;;;;5006424;28;20046;-74
2022/01/31 04:53:38;;;;;;;0.82;0.30;;;4.80;55.80;;;;;;5006102;28;20038;-73
2022/01/31 04:56:04;;;;;;;1.13;0.50;;;4.90;56.00;;;;;;5009280;28;20476;-73
2022/01/31 04:58:32;;;;;;;0.30;0.30;;;4.50;58.00;;;;;;5006940;28;20759;-74
2022/01/31 05:00:58;;;;;;;0.80;0.40;;;4.40;58.30;;;;;;5008380;28;20475;-73
2022/01/31 05:03:24;;;;;;;0.80;0.30;;;4.60;56.20;;;;;;5006101;28;20040;-73
2022/01/31 05:05:50;;;;;;;1.15;0.40;;;4.70;55.70;;;;;;5005952;28;20105;-74
2022/01/31 05:08:16;;;;;;;0.88;0.43;;;4.80;56.00;;;;;;5005519;28;20092;-73
2022/01/31 05:10:45;;;;;;;0.45;0.10;;;4.90;55.50;;;;;;5006269;28;20030;-73
2022/01/31 05:13:12;;;;;;;1.15;0.38;;;5.30;53.30;;;;;;5004793;28;20034;-73
2022/01/31 05:15:38;;;;;;;0.75;0.32;;;5.30;53.60;;;;;;5005763;28;20650;-74
2022/01/31 05:18:03;;;;;;;0.35;0.17;;;5.20;53.50;;;;;;5006158;28;20099;-73
2022/01/31 05:20:29;;;;;;;0.88;0.38;;;5.00;56.60;;;;;;5005420;28;20033;-73
2022/01/31 05:22:55;;;;;;;3.40;0.52;;;4.70;58.00;;;;;;5002872;28;20045;-73
2022/01/31 05:25:20;;;;;;;1.35;0.55;;;4.50;57.50;;;;;;5004883;28;20050;-73
2022/01/31 05:27:46;;;;;;;0.90;0.50;;;4.40;58.50;;;;;;5001597;28;20042;-73
2022/01/31 05:30:12;;;;;;;1.17;0.52;;;4.30;57.50;;;;;;5006244;28;20396;-73
2022/01/31 05:32:37;;;;;;;1.45;0.50;;;4.40;56.30;;;;;;5005146;28;20121;-73
2022/01/31 05:35:05;;;;;;;2.45;0.70;;;4.70;55.30;;;;;;5006477;28;20045;-73
2022/01/31 05:37:31;;;;;;;1.70;0.65;;;4.90;55.10;;;;;;5005868;28;20038;-73
2022/01/31 05:39:57;;;;;;;0.40;0.28;;;4.90;54.80;;;;;;5005985;28;20030;-73
2022/01/31 05:42:23;;;;;;;1.15;0.65;;;4.80;56.30;;;;;;5001753;28;20080;-74
2022/01/31 05:44:51;;;;;;;0.82;0.45;;;4.50;59.00;;;;;;5002300;28;20912;-74
2022/01/31 05:47:17;;;;;;;1.63;0.60;;;4.30;58.60;;;;;;5005821;28;20494;-73
2022/01/31 05:49:43;;;;;;;1.98;0.73;;;4.40;57.10;;;;;;5005156;28;20034;-73
2022/01/31 05:52:10;;;;;;;2.17;0.93;;;4.60;56.30;;;;;;5005359;28;20042;-74
2022/01/31 05:54:37;;;;;;;1.73;0.57;;;4.70;56.30;;;;;;5003536;28;20037;-73
2022/01/31 05:57:04;;;;;;;2.10;0.52;;;4.70;55.60;;;;;;5005392;28;20037;-73
2022/01/31 05:59:30;;;;;;;2.95;1.02;;;4.50;56.80;;;;;;5004698;28;20046;-73
2022/01/31 06:01:57;;;;;;;1.42;0.60;;;4.50;57.20;;;;;;5005543;28;20038;-73
2022/01/31 06:04:24;;;;;;;4.38;2.22;;;4.40;57.50;;;;;;5004413;28;20052;-73
2022/01/31 06:06:49;;;;;;;3.75;1.58;;;4.00;61.80;;;;;;5004564;28;20033;-73
2022/01/31 06:09:15;;;;;;;3.92;1.63;;;3.70;61.60;;;;;;5005372;28;20054;-74
2022/01/31 06:11:41;;;;;;;0.90;0.55;;;3.80;60.40;;;;;;5005283;28;20097;-73
2022/01/31 06:14:08;;;;;;;3.20;1.05;;;3.90;59.70;;;;;;5004036;28;20029;-74
2022/01/31 06:16:35;;;;;;;1.83;0.90;;;4.00;57.50;;;;;;5004206;28;20033;-74
2022/01/31 06:19:00;;;;;;;2.20;1.02;;;4.20;57.70;;;;;;5005182;28;20038;-74
2022/01/31 06:21:26;;;;;;;2.92;0.80;;;4.00;60.40;;;;;;5004518;28;20388;-75
2022/01/31 06:23:53;;;;;;;1.35;0.70;;;3.80;61.10;;;;;;5003816;28;20125;-74
2022/01/31 06:26:20;;;;;;;2.78;0.98;;;3.50;62.00;;;;;;4998752;28;20519;-74
2022/01/31 06:28:47;;;;;;;5.75;1.27;;;3.40;62.30;;;;;;5001691;28;20057;-74
2022/01/31 06:31:12;;;;;;;3.15;1.05;;;3.30;62.70;;;;;;5009142;28;20038;-74
2022/01/31 06:33:38;;;;;;;2.72;1.20;;;3.30;62.00;;;;;;5005954;28;20034;-74
2022/01/31 06:36:04;;;;;;;3.67;1.20;;;3.30;61.60;;;;;;5000220;28;20036;-74
2022/01/31 06:38:29;;;;;;;3.80;0.90;;;3.50;60.20;;;;;;5005592;28;20034;-74
2022/01/31 06:40:55;;;;;;;1.92;0.90;;;3.60;60.40;;;;;;5007245;28;20048;-73
2022/01/31 06:43:21;;;;;;;3.70;1.20;;;3.60;59.20;;;;;;5004869;28;20069;-75
2022/01/31 06:45:47;;;;;;;2.70;0.90;;;3.60;60.10;;;;;;5002826;28;20030;-75
2022/01/31 06:48:13;;;;;;;3.15;1.15;;;3.60;59.70;;;;;;5001065;28;20901;-74
2022/01/31 06:50:39;;;;;;;3.60;1.48;;;3.60;61.40;;;;;;5003771;28;20035;-76
2022/01/31 06:53:05;;;;;;;4.03;1.40;;;3.80;58.80;;;;;;5004771;28;20036;-75
2022/01/31 06:55:34;;;;;;;2.83;1.30;;;3.70;58.60;;;;;;5005033;28;20034;-76
2022/01/31 06:58:00;;;;;;;4.30;1.58;;;3.70;59.30;;;;;;5004196;28;20100;-75
2022/01/31 07:00:26;;;;;;;5.30;1.42;;;3.50;60.00;;;;;;5004530;28;20119;-75
2022/01/31 07:02:52;;;;;;;4.28;1.35;;;3.50;59.70;;;;;;5004455;28;20187;-76
2022/01/31 07:05:18;;;;;;;4.25;1.55;;;3.50;59.00;;;;;;5005303;28;20112;-75
2022/01/31 07:07:44;;;;;;;7.82;3.15;;;3.50;60.10;;;;;;5003348;28;20356;-75
2022/01/31 07:10:11;;;;;;;2.08;0.93;;;3.30;61.80;;;;;;5004548;28;20041;-75
2022/01/31 07:12:40;;;;;;;3.03;0.82;;;3.30;60.20;;;;;;5002367;28;20037;-75
2022/01/31 07:15:10;;;;;;;7.60;3.90;;;3.50;59.30;;;;;;4998193;28;20030;-75
2022/01/31 07:17:37;;;;;;;4.72;1.85;;;3.40;64.10;;;;;;5003395;28;20025;-75
2022/01/31 07:20:11;;;;;;;52.85;24.00;;;3.30;61.20;;;;;;5003923;28;20085;-75
2022/01/31 07:22:39;;;;;;;3.20;1.70;;;3.60;59.90;;;;;;5003967;28;20415;-74
2022/01/31 07:25:09;;;;;;;2.58;0.82;;;3.70;59.00;;;;;;5002271;28;20491;-75
2022/01/31 07:27:35;;;;;;;1.50;0.65;;;3.70;59.60;;;;;;5004293;28;20037;-75
2022/01/31 07:30:03;;;;;;;3.80;0.82;;;3.70;60.30;;;;;;5003621;28;20330;-75
2022/01/31 07:32:29;;;;;;;5.07;1.33;;;3.70;59.90;;;;;;5004557;28;20045;-75
2022/01/31 07:34:56;;;;;;;32.63;12.25;;;3.60;60.80;;;;;;5004557;28;20034;-75
2022/01/31 07:37:26;;;;;;;22.60;10.65;;;3.60;61.70;;;;;;5003101;28;20029;-75
2022/01/31 07:39:52;;;;;;;24.27;12.25;;;3.70;61.70;;;;;;5003636;28;20034;-75
2022/01/31 07:42:19;;;;;;;10.07;4.55;;;3.70;61.90;;;;;;5003751;28;20029;-75
2022/01/31 07:44:45;;;;;;;8.35;3.33;;;3.40;64.40;;;;;;5005357;28;20041;-75
2022/01/31 07:47:11;;;;;;;12.10;4.57;;;3.30;63.20;;;;;;5007316;28;20637;-75
2022/01/31 07:49:36;;;;;;;4.72;2.08;;;3.30;63.80;;;;;;5006529;28;20116;-75
2022/01/31 07:52:03;;;;;;;25.50;13.63;;;3.30;63.00;;;;;;5007846;28;20176;-75
2022/01/31 07:54:29;;;;;;;15.43;9.20;;;3.40;62.90;;;;;;5005614;28;20030;-75
2022/01/31 07:56:56;;;;;;;8.85;4.90;;;3.60;64.00;;;;;;5008855;28;20036;-75
2022/01/31 07:59:23;;;;;;;4.80;1.90;;;3.50;67.10;;;;;;5001782;28;20026;-75
2022/01/31 08:01:49;;;;;;;9.55;3.55;;;3.50;66.30;;;;;;5001465;28;20131;-74
2022/01/31 08:04:14;;;;;;;3.22;1.40;;;3.60;63.90;;;;;;5002159;28;20061;-75
2022/01/31 08:06:40;;;;;;;3.00;1.08;;;3.70;61.20;;;;;;5008185;28;20034;-75
2022/01/31 08:09:06;;;;;;;5.90;2.42;;;3.90;60.40;;;;;;5008529;28;20041;-75
2022/01/31 08:11:33;;;;;;;6.85;3.05;;;3.60;64.10;;;;;;5007392;28;20068;-75
2022/01/31 08:14:05;;;;;;;5.63;2.40;;;3.30;66.60;;;;;;5008148;28;20030;-76
2022/01/31 08:16:32;;;;;;;7.60;3.35;;;2.90;67.10;;;;;;5006008;28;20026;-75
2022/01/31 08:18:57;;;;;;;7.70;2.90;;;2.70;66.90;;;;;;5007785;28;20512;-75
2022/01/31 08:21:26;;;;;;;6.50;2.45;;;2.50;66.20;;;;;;5007140;28;20040;-75
2022/01/31 08:23:53;;;;;;;8.45;3.38;;;2.60;66.80;;;;;;5007299;28;20068;-75
2022/01/31 08:26:20;;;;;;;6.60;2.55;;;2.90;66.00;;;;;;5007382;28;20056;-75
2022/01/31 08:28:59;;;;;;;6.20;3.15;;;3.10;66.80;;;;;;5006887;28;20034;-74
2022/01/31 08:31:33;;;;;;;5.03;2.75;;;3.30;66.50;;;;;;5004948;28;20483;-74
2022/01/31 08:36:27;;;;;;;4.90;2.42;;;3.40;66.70;;;;;;5006806;28;20391;-74
2022/01/31 08:38:54;;;;;;;8.00;2.33;;;3.30;66.60;;;;;;5007745;28;20034;-75
2022/01/31 08:41:20;;;;;;;4.40;1.70;;;3.70;66.20;;;;;;5005726;28;20018;-74
2022/01/31 08:43:47;;;;;;;6.65;2.60;;;3.50;64.90;;;;;;5006821;28;20690;-74
2022/01/31 08:46:14;;;;;;;6.40;3.03;;;3.50;64.20;;;;;;5004965;28;20073;-75
2022/01/31 08:48:43;;;;;;;35.25;15.70;;;3.50;65.10;;;;;;5006644;28;20204;-74
2022/01/31 08:51:10;;;;;;;12.90;6.50;;;3.50;66.50;;;;;;5005515;28;20388;-74
2022/01/31 08:53:36;;;;;;;32.35;16.50;;;3.60;65.50;;;;;;5006754;28;20042;-74
2022/01/31 08:56:07;;;;;;;23.90;12.73;;;3.60;64.70;;;;;;5006725;28;20029;-75
2022/01/31 08:58:33;;;;;;;14.13;6.10;;;3.60;64.70;;;;;;5007504;28;20361;-74
2022/01/31 09:01:04;;;;;;;5.63;2.75;;;3.60;66.40;;;;;;5009543;28;20052;-74
2022/01/31 09:06:03;;;;;;;4.90;1.83;;;3.50;66.60;;;;;;5009301;28;20041;-74
2022/01/31 09:08:29;;;;;;;5.38;1.73;;;3.50;64.10;;;;;;5008623;28;20507;-74
2022/01/31 09:10:55;;;;;;;5.70;1.75;;;3.50;63.10;;;;;;5009565;28;20029;-74
2022/01/31 09:13:20;;;;;;;4.25;1.75;;;3.40;62.10;;;;;;5008735;28;20468;-74
2022/01/31 09:15:46;;;;;;;22.05;12.57;;;3.50;62.40;;;;;;5009707;28;20033;-74
2022/01/31 09:18:12;;;;;;;9.90;5.10;;;3.50;63.40;;;;;;5009038;28;20040;-73
2022/01/31 09:20:38;;;;;;;8.07;3.65;;;3.10;66.50;;;;;;5009142;28;20176;-74
2022/01/31 09:23:04;;;;;;;5.95;3.45;;;3.00;66.70;;;;;;5008962;28;20030;-74
2022/01/31 09:25:30;;;;;;;10.27;2.83;;;2.80;67.20;;;;;;5009566;28;20046;-74
2022/01/31 09:27:58;;;;;;;6.65;3.15;;;2.80;67.30;;;;;;5009150;28;20046;-74
2022/01/31 09:30:26;;;;;;;8.45;4.55;;;2.70;68.20;;;;;;5009195;28;20038;-74
2022/01/31 09:32:52;;;;;;;11.45;5.72;;;2.60;68.60;;;;;;5009106;28;20044;-74
2022/01/31 09:35:18;;;;;;;9.90;5.78;;;2.60;70.20;;;;;;5007980;28;20037;-74
2022/01/31 09:37:43;;;;;;;11.77;6.22;;;2.60;71.40;;;;;;5007249;28;20025;-74
2022/01/31 09:40:12;;;;;;;8.43;4.43;;;2.70;71.30;;;;;;5008776;28;20030;-74
2022/01/31 09:42:58;;;;;;;5.25;2.90;;;2.60;71.10;;;;;;5011192;28;20613;-75
2022/01/31 09:45:37;;;;;;;4.43;2.20;;;2.60;69.90;;;;;;5009427;28;20396;-74
2022/01/31 09:50:30;;;;;;;3.05;1.40;;;2.90;66.10;;;;;;5008916;28;20125;-74
2022/01/31 09:52:56;;;;;;;3.15;1.20;;;3.00;65.70;;;;;;5009155;28;20029;-74
2022/01/31 09:55:25;;;;;;;4.68;1.83;;;3.10;65.20;;;;;;5008951;28;20105;-74
2022/01/31 09:57:51;;;;;;;4.00;1.50;;;3.20;65.90;;;;;;5008319;28;20104;-74
2022/01/31 10:00:17;;;;;;;4.82;1.98;;;3.40;65.00;;;;;;5008066;28;20033;-74
2022/01/31 10:03:09;;;;;;;7.85;2.85;;;3.50;64.00;;;;;;5008730;28;20536;-75
2022/01/31 10:05:35;;;;;;;6.75;3.05;;;3.30;67.60;;;;;;5008004;28;20472;-74
2022/01/31 10:08:14;;;;;;;5.07;2.72;;;3.30;67.80;;;;;;5007644;28;20038;-74
2022/01/31 10:10:43;;;;;;;8.43;5.72;;;3.30;67.50;;;;;;5010161;28;20030;-74
2022/01/31 10:16:28;;;;;;;6.30;2.58;;;3.50;66.20;;;;;;5005906;28;20040;-74
2022/01/31 10:19:09;;;;;;;4.38;2.00;;;3.40;64.80;;;;;;5012041;28;20056;-74
2022/01/31 10:22:00;;;;;;;6.95;1.48;;;3.40;64.00;;;;;;5007752;28;20034;-74
2022/01/31 10:24:28;;;;;;;27.13;17.65;;;3.60;64.80;;;;;;5001308;28;20057;-75
2022/01/31 10:26:54;;;;;;;15.38;9.15;;;3.80;64.20;;;;;;5008638;28;20151;-74
2022/01/31 10:29:22;;;;;;;43.15;25.45;;;3.80;64.50;;;;;;5007320;28;20092;-74
2022/01/31 10:32:03;;;;;;;66.03;44.13;;;3.90;63.50;;;;;;5007804;28;20106;-74
2022/01/31 10:34:32;;;;;;;22.23;13.27;;;3.80;62.50;;;;;;5008123;28;20098;-74
2022/01/31 10:37:03;;;;;;;18.80;11.05;;;4.00;62.60;;;;;;5008237;28;20046;-73
2022/01/31 10:54:15;;;;;;;4.88;1.83;;;4.80;63.80;;;;;;5008156;28;20037;-74
2022/01/31 10:56:45;;;;;;;5.65;2.08;;;4.80;63.60;;;;;;5007869;28;20030;-74
2022/01/31 10:59:19;;;;;;;5.65;2.30;;;4.70;63.30;;;;;;5007795;28;20033;-75
2022/01/31 11:01:47;;;;;;;4.70;2.38;;;4.70;63.10;;;;;;5006777;28;20388;-74
2022/01/31 11:04:17;;;;;;;6.78;2.33;;;4.70;63.20;;;;;;5007577;28;20025;-75
2022/01/31 11:06:45;;;;;;;7.95;2.05;;;4.70;63.60;;;;;;5007790;28;20657;-75
2022/01/31 11:09:14;;;;;;;11.90;4.65;;;4.90;63.00;;;;;;5008154;28;20038;-74
2022/01/31 11:11:43;;;;;;;6.10;2.92;;;5.00;62.20;;;;;;5007728;28;20076;-74
2022/01/31 11:14:10;;;;;;;4.30;1.52;;;5.20;62.90;;;;;;5007440;28;20087;-74
2022/01/31 11:16:38;;;;;;;2.85;1.35;;;5.30;62.10;;;;;;5007555;28;20034;-74
2022/01/31 11:19:08;;;;;;;3.15;1.50;;;5.30;60.60;;;;;;5009305;28;20026;-74
2022/01/31 11:21:36;;;;;;;4.32;1.88;;;5.40;61.40;;;;;;5010854;28;20037;-74
2022/01/31 11:24:06;;;;;;;3.40;1.73;;;5.50;61.50;;;;;;5011176;28;20811;-74
2022/01/31 11:26:38;;;;;;;3.65;1.80;;;5.60;61.70;;;;;;5011407;28;20041;-74
2022/01/31 11:29:07;;;;;;;2.13;1.23;;;5.70;61.80;;;;;;5011679;28;20059;-74
2022/01/31 11:31:36;;;;;;;3.63;1.63;;;5.80;61.70;;;;;;5010821;28;20045;-74
2022/01/31 11:34:04;;;;;;;6.18;1.80;;;5.70;60.70;;;;;;5011670;28;20042;-74
2022/01/31 11:36:29;;;;;;;5.07;1.95;;;5.70;60.80;;;;;;5011029;28;20388;-74
2022/01/31 11:38:56;;;;;;;7.60;1.90;;;5.80;62.10;;;;;;5010340;28;20125;-74
2022/01/31 11:41:22;;;;;;;4.60;1.73;;;6.00;61.60;;;;;;5010029;28;20056;-74
2022/01/31 11:43:56;;;;;;;6.47;4.00;;;6.20;62.20;;;;;;5011165;28;20041;-74
2022/01/31 11:46:26;;;;;;;9.57;2.80;;;6.30;61.10;;;;;;5011173;28;20084;-74
2022/01/31 11:48:54;;;;;;;4.35;2.25;;;6.50;61.60;;;;;;5010361;28;20124;-74
2022/01/31 11:51:21;;;;;;;5.30;1.90;;;6.60;60.50;;;;;;5011098;28;20080;-74
2022/01/31 11:53:47;;;;;;;4.78;1.98;;;6.50;60.60;;;;;;5010818;28;20472;-74
2022/01/31 11:56:22;;;;;;;6.38;2.75;;;6.70;60.90;;;;;;5009629;28;20085;-74
2022/01/31 11:58:59;;;;;;;9.75;3.42;;;6.80;60.50;;;;;;5011207;28;20117;-74
2022/01/31 12:01:28;;;;;;;8.98;3.05;;;7.00;61.10;;;;;;5010525;28;20120;-74
2022/01/31 12:03:58;;;;;;;11.75;3.28;;;7.20;60.60;;;;;;5011216;28;20034;-74
2022/01/31 12:06:26;;;;;;;7.47;4.18;;;7.10;58.60;;;;;;5011006;28;20396;-74
2022/01/31 12:08:53;;;;;;;11.82;5.97;;;7.40;60.00;;;;;;5011288;28;20038;-75
2022/01/31 12:11:27;;;;;;;9.10;4.93;;;7.50;60.20;;;;;;5010020;28;20022;-75
2022/01/31 12:13:58;;;;;;;9.77;4.53;;;7.70;60.30;;;;;;5010124;28;20030;-74
2022/01/31 12:16:58;;;;;;;9.43;5.72;;;7.70;60.50;;;;;;5010286;28;20546;-74
2022/01/31 12:22:01;;;;;;;11.38;4.45;;;7.40;58.70;;;;;;5010036;28;20037;-74
2022/01/31 12:24:43;;;;;;;8.40;3.60;;;7.40;60.40;;;;;;5009848;28;20104;-74
2022/01/31 12:27:17;;;;;;;9.25;4.60;;;7.70;61.40;;;;;;5010427;28;20034;-74
2022/01/31 12:29:47;;;;;;;11.35;4.97;;;7.80;61.10;;;;;;5009142;28;20384;-74
2022/01/31 12:32:21;;;;;;;11.73;7.05;;;7.70;61.20;;;;;;5010373;28;20069;-74
2022/01/31 12:34:50;;;;;;;15.85;7.35;;;7.60;60.50;;;;;;5010495;28;20626;-74
2022/01/31 12:37:25;;;;;;;12.63;6.00;;;7.60;61.30;;;;;;5010761;28;20033;-74
2022/01/31 12:40:02;;;;;;;12.13;5.20;;;7.50;61.60;;;;;;5009766;28;20122;-74
2022/01/31 12:45:13;;;;;;;11.95;6.00;;;8.00;61.20;;;;;;5010191;28;20061;-74
2022/01/31 12:48:19;;;;;;;14.70;6.35;;;8.10;61.90;;;;;;5009766;28;20084;-74
2022/01/31 12:50:51;;;;;;;14.45;7.35;;;8.20;62.00;;;;;;5003300;28;20096;-74
2022/01/31 12:53:22;;;;;;;14.27;6.18;;;8.10;62.20;;;;;;5009100;28;20156;-74
2022/01/31 12:56:13;;;;;;;19.10;7.28;;;7.90;62.20;;;;;;5009934;28;20037;-74
2022/01/31 12:58:43;;;;;;;17.52;7.30;;;8.00;63.20;;;;;;5009509;28;20021;-74
2022/01/31 13:01:12;;;;;;;17.38;10.30;;;7.90;63.30;;;;;;5009918;28;20056;-74
2022/01/31 13:03:39;;;;;;;19.27;8.20;;;8.00;63.40;;;;;;5010112;28;20065;-74
2022/01/31 13:06:26;;;;;;;20.10;8.65;;;8.20;64.00;;;;;;5009733;28;20033;-74
2022/01/31 13:08:52;;;;;;;16.73;8.38;;;8.20;63.50;;;;;;5008864;28;20038;-74
2022/01/31 13:11:18;;;;;;;18.65;8.57;;;8.10;63.00;;;;;;5008967;28;20030;-75
2022/01/31 13:13:45;;;;;;;18.80;9.23;;;8.00;62.80;;;;;;5009978;28;20052;-74
2022/01/31 13:16:12;;;;;;;22.17;9.23;;;8.10;62.90;;;;;;5009371;28;20070;-74
2022/01/31 13:18:39;;;;;;;17.52;7.75;;;8.20;63.40;;;;;;5009063;28;20055;-74
2022/01/31 13:21:09;;;;;;;15.68;7.55;;;8.20;62.90;;;;;;5008681;28;20069;-75
2022/01/31 13:23:36;;;;;;;16.48;7.18;;;8.30;63.80;;;;;;5006107;28;20361;-74
2022/01/31 13:26:07;;;;;;;17.17;8.18;;;8.30;63.00;;;;;;5007070;28;20050;-74
2022/01/31 13:28:33;;;;;;;17.33;8.15;;;8.30;63.90;;;;;;5006034;28;20046;-74
2022/01/31 13:31:10;;;;;;;25.42;9.00;;;8.40;63.80;;;;;;5008628;28;20037;-74
2022/01/31 13:33:52;;;;;;;20.25;10.60;;;8.60;64.10;;;;;;5005470;28;20080;-74